Time;durP1;ratioP1;P1;durP2;ratioP2;P2;SDS_P1;SDS_P2;PMS_P1;PMS_P2;Temp;Humidity;BMP_temperature;BMP_pressure;BME280_temperature;BME280_humidity;BME280_pressure;Samples;Min_cycle;Max_cycle;Signal;HPM_P1;HPM_P2
2021/10/10 00:01:42;;;;;;;17.23;10.45;;;9.50;84.80;;;;;;5001656;28;20033;-71
2021/10/10 00:04:08;;;;;;;18.27;11.40;;;9.50;84.70;;;;;;5010908;28;20374;-71
2021/10/10 00:06:34;;;;;;;16.38;10.90;;;9.50;84.80;;;;;;5009523;28;20049;-71
2021/10/10 00:09:00;;;;;;;17.60;10.70;;;9.50;85.00;;;;;;5011442;28;20026;-71
2021/10/10 00:11:25;;;;;;;16.95;10.75;;;9.40;85.00;;;;;;4998276;28;20041;-71
2021/10/10 00:13:51;;;;;;;19.00;10.50;;;9.40;85.40;;;;;;4995385;28;20117;-71
2021/10/10 00:16:16;;;;;;;17.50;10.52;;;9.30;84.90;;;;;;5004989;28;20055;-70
2021/10/10 00:18:42;;;;;;;17.67;11.45;;;9.30;85.00;;;;;;5004574;28;20022;-70
2021/10/10 00:21:07;;;;;;;14.23;9.63;;;9.30;85.20;;;;;;5009023;28;20113;-71
2021/10/10 00:23:33;;;;;;;20.10;10.82;;;9.30;85.20;;;;;;5009513;28;20229;-71
2021/10/10 00:25:58;;;;;;;18.15;10.98;;;9.30;85.30;;;;;;4992248;28;20081;-71
2021/10/10 00:28:24;;;;;;;17.15;10.90;;;9.30;85.40;;;;;;4992589;28;20168;-72
2021/10/10 00:30:50;;;;;;;20.35;11.52;;;9.30;85.50;;;;;;4999397;28;20093;-73
2021/10/10 00:33:15;;;;;;;15.55;9.80;;;9.20;85.40;;;;;;4992409;28;20088;-73
2021/10/10 00:35:41;;;;;;;15.13;10.35;;;9.20;85.60;;;;;;5008880;28;20026;-73
2021/10/10 00:38:06;;;;;;;16.92;10.60;;;9.20;85.70;;;;;;5008599;28;20029;-73
2021/10/10 00:40:32;;;;;;;16.45;10.25;;;9.20;85.90;;;;;;5007825;28;20594;-73
2021/10/10 00:42:58;;;;;;;16.45;11.02;;;9.20;85.90;;;;;;5010678;28;20038;-73
2021/10/10 00:45:23;;;;;;;17.30;10.70;;;9.10;86.10;;;;;;4995543;28;20417;-73
2021/10/10 00:47:49;;;;;;;17.38;11.27;;;9.10;86.40;;;;;;4990626;28;20112;-72
2021/10/10 00:50:14;;;;;;;17.83;11.02;;;9.10;86.40;;;;;;5010460;28;20177;-72
2021/10/10 00:52:42;;;;;;;18.25;11.30;;;9.10;86.40;;;;;;4992780;28;20491;-71
2021/10/10 00:55:09;;;;;;;16.55;11.00;;;9.00;86.40;;;;;;5007563;28;20072;-72
2021/10/10 00:57:36;;;;;;;16.63;10.95;;;9.00;86.80;;;;;;5009930;28;20041;-73
2021/10/10 01:00:05;;;;;;;18.70;10.27;;;9.00;87.10;;;;;;5009999;28;20030;-73
2021/10/10 01:02:31;;;;;;;16.70;11.57;;;9.00;87.10;;;;;;5010823;28;20018;-72
2021/10/10 01:04:57;;;;;;;19.60;11.63;;;9.00;87.30;;;;;;5013702;28;20473;-73
2021/10/10 01:07:25;;;;;;;20.77;11.88;;;9.10;87.30;;;;;;5008694;28;20109;-72
2021/10/10 01:09:51;;;;;;;18.10;11.40;;;9.00;87.40;;;;;;5010327;28;20044;-72
2021/10/10 01:12:17;;;;;;;18.58;11.63;;;9.00;87.90;;;;;;5014340;28;20018;-72
2021/10/10 01:14:42;;;;;;;19.40;12.13;;;8.90;87.70;;;;;;5013734;28;20025;-71
2021/10/10 01:17:08;;;;;;;19.38;11.82;;;8.90;87.90;;;;;;5014255;28;20392;-71
2021/10/10 01:19:36;;;;;;;16.20;10.98;;;9.00;87.90;;;;;;5013569;28;20121;-71
2021/10/10 01:22:03;;;;;;;15.88;10.48;;;9.00;87.90;;;;;;5015755;28;20065;-71
2021/10/10 01:24:29;;;;;;;18.67;11.38;;;8.90;87.80;;;;;;5012937;28;20034;-71
2021/10/10 01:26:55;;;;;;;16.27;10.80;;;8.90;87.90;;;;;;5012105;28;20030;-71
2021/10/10 01:29:21;;;;;;;16.90;11.70;;;8.90;88.10;;;;;;5010180;28;20377;-71
2021/10/10 01:31:47;;;;;;;21.80;12.77;;;8.90;88.40;;;;;;5015476;28;20053;-71
2021/10/10 01:34:13;;;;;;;24.27;13.45;;;8.90;88.60;;;;;;5006706;28;20114;-71
2021/10/10 01:36:38;;;;;;;19.60;12.27;;;8.90;88.50;;;;;;5006023;28;20522;-71
2021/10/10 01:39:05;;;;;;;25.02;12.85;;;8.80;88.50;;;;;;5013214;28;20088;-71
2021/10/10 01:41:30;;;;;;;22.35;13.88;;;8.80;88.70;;;;;;5012858;28;20040;-71
2021/10/10 01:43:56;;;;;;;21.33;11.95;;;8.80;89.10;;;;;;5011230;28;20121;-71
2021/10/10 01:46:21;;;;;;;21.73;13.48;;;8.80;89.00;;;;;;4998609;28;20571;-71
2021/10/10 01:48:47;;;;;;;19.98;12.45;;;8.70;88.80;;;;;;5010679;28;20034;-71
2021/10/10 01:51:13;;;;;;;21.08;13.35;;;8.70;88.80;;;;;;5006794;28;20089;-71
2021/10/10 01:53:40;;;;;;;20.92;13.50;;;8.70;89.00;;;;;;5009395;28;20030;-71
2021/10/10 01:56:06;;;;;;;21.13;13.05;;;8.60;89.50;;;;;;5011754;28;20046;-70
2021/10/10 01:58:31;;;;;;;22.33;12.98;;;8.60;89.50;;;;;;5007066;28;20034;-70
2021/10/10 02:00:58;;;;;;;25.25;13.45;;;8.60;90.00;;;;;;5013533;28;20025;-71
2021/10/10 02:03:24;;;;;;;20.35;12.63;;;8.60;89.60;;;;;;5003645;28;20031;-71
2021/10/10 02:05:50;;;;;;;21.80;12.52;;;8.60;89.70;;;;;;4995392;28;20026;-70
2021/10/10 02:08:16;;;;;;;21.60;12.68;;;8.60;90.00;;;;;;5005071;28;20493;-71
2021/10/10 02:10:42;;;;;;;20.17;12.43;;;8.60;90.10;;;;;;5008051;28;20405;-72
2021/10/10 02:13:07;;;;;;;19.45;12.43;;;8.60;90.10;;;;;;5002540;28;20030;-71
2021/10/10 02:15:32;;;;;;;18.35;12.23;;;8.60;90.00;;;;;;5008004;28;20496;-71
2021/10/10 02:17:58;;;;;;;22.63;12.27;;;8.60;90.00;;;;;;5012148;28;20029;-71
2021/10/10 02:20:24;;;;;;;17.77;11.27;;;8.50;90.00;;;;;;5014715;28;20481;-70
2021/10/10 02:22:49;;;;;;;21.08;12.95;;;8.50;90.00;;;;;;5012072;28;20397;-71
2021/10/10 02:25:15;;;;;;;20.58;12.68;;;8.50;90.00;;;;;;5014208;28;20032;-71
2021/10/10 02:27:40;;;;;;;25.13;13.02;;;8.50;90.00;;;;;;5010627;28;20104;-70
2021/10/10 02:30:07;;;;;;;20.23;12.68;;;8.50;90.10;;;;;;5025853;28;20025;-71
2021/10/10 02:32:32;;;;;;;21.58;13.85;;;8.40;90.20;;;;;;5024206;28;20030;-71
2021/10/10 02:34:58;;;;;;;20.88;13.43;;;8.40;90.30;;;;;;5007539;28;20030;-71
2021/10/10 02:37:24;;;;;;;19.17;12.82;;;8.40;90.30;;;;;;4994224;28;20045;-72
2021/10/10 02:39:51;;;;;;;21.58;12.73;;;8.40;90.40;;;;;;4994849;28;20534;-73
2021/10/10 02:42:17;;;;;;;24.85;13.45;;;8.30;90.40;;;;;;4995150;28;20061;-72
2021/10/10 02:44:43;;;;;;;20.27;12.57;;;8.30;90.40;;;;;;5012798;28;20022;-72
2021/10/10 02:47:08;;;;;;;19.10;12.68;;;8.30;90.50;;;;;;5009140;28;20029;-72
2021/10/10 02:49:34;;;;;;;21.02;13.20;;;8.30;90.50;;;;;;4994955;28;20153;-73
2021/10/10 02:51:59;;;;;;;20.92;13.05;;;8.30;90.50;;;;;;5007052;28;20045;-72
2021/10/10 02:54:25;;;;;;;17.45;12.15;;;8.30;90.70;;;;;;5012815;28;20054;-73
2021/10/10 02:56:50;;;;;;;21.95;14.68;;;8.30;90.80;;;;;;5013095;28;20153;-72
2021/10/10 02:59:16;;;;;;;21.80;13.13;;;8.30;90.90;;;;;;5012600;28;20026;-72
2021/10/10 03:01:41;;;;;;;20.92;13.45;;;8.30;90.80;;;;;;5008928;28;20030;-73
2021/10/10 03:04:07;;;;;;;20.50;12.70;;;8.20;90.90;;;;;;5012062;28;20072;-72
2021/10/10 03:06:32;;;;;;;20.20;12.75;;;8.20;90.80;;;;;;5012758;28;20033;-73
2021/10/10 03:08:58;;;;;;;20.67;12.98;;;8.20;90.80;;;;;;5011854;28;20028;-71
2021/10/10 03:11:23;;;;;;;21.40;14.27;;;8.20;90.90;;;;;;5012530;28;20042;-71
2021/10/10 03:13:48;;;;;;;20.30;13.95;;;8.10;90.90;;;;;;5011485;28;20478;-72
2021/10/10 03:16:14;;;;;;;19.70;13.15;;;8.10;91.00;;;;;;5012491;28;20041;-71
2021/10/10 03:18:39;;;;;;;20.35;12.52;;;8.10;91.00;;;;;;5007735;28;20042;-71
2021/10/10 03:21:06;;;;;;;22.77;13.55;;;8.10;90.90;;;;;;5013388;28;20020;-71
2021/10/10 03:23:31;;;;;;;21.48;13.63;;;8.10;91.00;;;;;;4997050;28;20057;-71
2021/10/10 03:25:57;;;;;;;20.95;13.35;;;8.00;91.00;;;;;;4993503;28;20479;-72
2021/10/10 03:28:22;;;;;;;22.38;14.77;;;8.00;91.10;;;;;;5005831;28;20057;-72
2021/10/10 03:30:47;;;;;;;22.10;13.05;;;8.00;91.20;;;;;;5013304;28;20470;-71
2021/10/10 03:33:13;;;;;;;24.77;12.57;;;8.00;91.40;;;;;;5010415;28;20033;-71
2021/10/10 03:35:38;;;;;;;21.90;14.07;;;8.00;91.40;;;;;;5011718;28;20033;-71
2021/10/10 03:38:04;;;;;;;23.67;13.02;;;8.00;91.40;;;;;;5010011;28;20034;-70
2021/10/10 03:40:30;;;;;;;22.10;14.00;;;8.00;91.30;;;;;;5012995;28;20502;-71
2021/10/10 03:42:55;;;;;;;22.60;13.00;;;8.00;91.60;;;;;;5009681;28;20044;-71
2021/10/10 03:45:21;;;;;;;22.35;13.50;;;8.00;91.40;;;;;;5012971;28;20037;-70
2021/10/10 03:47:46;;;;;;;25.08;13.90;;;7.90;91.50;;;;;;5007644;28;20022;-69
2021/10/10 03:50:12;;;;;;;25.48;15.45;;;7.90;91.50;;;;;;5010000;28;20030;-70
2021/10/10 03:52:37;;;;;;;22.52;14.40;;;7.90;91.50;;;;;;5009423;28;20475;-71
2021/10/10 03:57:48;;;;;;;24.35;14.25;;;7.90;91.50;;;;;;5011192;28;20505;-71
2021/10/10 04:00:14;;;;;;;26.95;15.13;;;7.90;91.70;;;;;;5011000;28;20113;-71
2021/10/10 04:02:41;;;;;;;21.88;14.00;;;7.90;91.80;;;;;;5010740;28;20080;-71
2021/10/10 04:05:17;;;;;;;22.80;13.38;;;7.90;91.80;;;;;;5008934;28;20050;-72
2021/10/10 04:07:43;;;;;;;21.35;12.82;;;7.90;91.70;;;;;;5005827;28;20034;-71
2021/10/10 04:10:08;;;;;;;23.73;14.15;;;7.90;91.80;;;;;;5009136;28;20037;-71
2021/10/10 04:12:34;;;;;;;23.13;13.70;;;7.80;91.70;;;;;;5011200;28;20133;-72
2021/10/10 04:14:59;;;;;;;22.13;13.70;;;7.90;91.80;;;;;;5011457;28;20541;-72
2021/10/10 04:17:25;;;;;;;23.73;14.80;;;7.90;91.80;;;;;;5009162;28;20029;-71
2021/10/10 04:19:50;;;;;;;23.23;14.38;;;7.80;91.80;;;;;;5010976;28;20541;-71
2021/10/10 04:22:16;;;;;;;22.58;14.18;;;7.80;91.80;;;;;;5007622;28;20026;-71
2021/10/10 04:24:41;;;;;;;23.58;14.05;;;7.80;91.80;;;;;;5012452;28;20061;-72
2021/10/10 04:27:07;;;;;;;23.35;13.73;;;7.80;91.90;;;;;;5009764;28;20026;-72
2021/10/10 04:29:32;;;;;;;24.67;14.07;;;7.80;91.90;;;;;;5010081;28;20462;-72
2021/10/10 04:31:58;;;;;;;20.55;13.73;;;7.80;91.90;;;;;;5011759;28;20026;-72
2021/10/10 04:34:23;;;;;;;23.42;14.18;;;7.80;91.90;;;;;;5010899;28;20095;-69
2021/10/10 04:36:49;;;;;;;24.30;14.88;;;7.70;91.90;;;;;;5009366;28;20060;-69
2021/10/10 04:39:14;;;;;;;22.98;13.55;;;7.70;91.90;;;;;;4995507;28;20034;-72
2021/10/10 04:41:39;;;;;;;21.08;13.77;;;7.70;91.90;;;;;;4992861;28;20050;-72
2021/10/10 04:44:05;;;;;;;23.98;14.43;;;7.70;91.90;;;;;;4994774;28;20076;-71
2021/10/10 04:46:30;;;;;;;23.77;14.48;;;7.70;92.10;;;;;;4992900;28;20026;-71
2021/10/10 04:48:56;;;;;;;24.88;14.30;;;7.70;92.10;;;;;;4994933;28;20398;-71
2021/10/10 04:51:21;;;;;;;20.92;13.55;;;7.70;92.10;;;;;;5011773;28;20129;-71
2021/10/10 04:53:47;;;;;;;22.20;14.23;;;7.60;92.10;;;;;;5003316;28;20037;-71
2021/10/10 04:56:12;;;;;;;25.02;15.10;;;7.60;92.10;;;;;;5011885;28;20045;-71
2021/10/10 04:58:38;;;;;;;23.77;15.23;;;7.60;92.30;;;;;;5008512;28;20026;-71
2021/10/10 05:01:03;;;;;;;23.52;14.20;;;7.50;92.20;;;;;;5014365;28;20032;-71
2021/10/10 05:03:29;;;;;;;25.42;14.32;;;7.50;92.20;;;;;;5010623;28;20113;-70
2021/10/10 05:05:54;;;;;;;23.52;13.98;;;7.60;92.20;;;;;;5009435;28;20022;-72
2021/10/10 05:08:20;;;;;;;26.17;15.88;;;7.50;92.20;;;;;;5008682;28;20072;-70
2021/10/10 05:10:45;;;;;;;24.15;13.85;;;7.50;92.20;;;;;;5008676;28;20034;-71
2021/10/10 05:13:11;;;;;;;23.17;13.73;;;7.50;92.30;;;;;;5009771;28;20072;-71
2021/10/10 05:15:36;;;;;;;24.48;15.05;;;7.50;92.30;;;;;;5010357;28;20494;-71
2021/10/10 05:18:02;;;;;;;25.83;14.57;;;7.50;92.40;;;;;;5008945;28;20386;-71
2021/10/10 05:20:28;;;;;;;24.48;15.60;;;7.50;92.40;;;;;;5010641;28;20032;-71
2021/10/10 05:22:53;;;;;;;25.05;14.73;;;7.50;92.40;;;;;;5006694;28;22447;-68
2021/10/10 05:25:19;;;;;;;24.83;14.88;;;7.50;92.40;;;;;;5002814;28;20072;-74
2021/10/10 05:27:44;;;;;;;26.90;15.27;;;7.50;92.40;;;;;;5009916;28;20149;-74
2021/10/10 05:30:10;;;;;;;25.02;14.93;;;7.50;92.30;;;;;;5010729;28;20033;-72
2021/10/10 05:32:36;;;;;;;25.90;15.30;;;7.40;92.30;;;;;;5009505;28;20113;-72
2021/10/10 05:35:01;;;;;;;25.10;14.70;;;7.40;92.40;;;;;;5010354;28;20053;-72
2021/10/10 05:37:27;;;;;;;25.77;15.50;;;7.30;92.40;;;;;;4997911;28;20030;-68
2021/10/10 05:39:52;;;;;;;25.30;15.35;;;7.30;92.40;;;;;;5010404;28;20430;-72
2021/10/10 05:42:18;;;;;;;26.60;15.48;;;7.30;92.40;;;;;;5006808;28;20040;-68
2021/10/10 05:44:44;;;;;;;25.45;15.63;;;7.30;92.50;;;;;;5011339;28;20030;-72
2021/10/10 05:47:09;;;;;;;28.35;15.70;;;7.30;92.50;;;;;;5005590;28;20041;-71
2021/10/10 05:49:35;;;;;;;28.48;14.82;;;7.40;92.60;;;;;;4997386;28;20129;-72
2021/10/10 05:52:01;;;;;;;24.90;14.88;;;7.30;92.60;;;;;;5006164;28;20034;-72
2021/10/10 05:54:29;;;;;;;28.95;17.05;;;7.30;92.60;;;;;;5012397;28;20564;-72
2021/10/10 05:56:55;;;;;;;25.77;15.93;;;7.30;92.70;;;;;;5006780;28;20105;-72
2021/10/10 05:59:22;;;;;;;22.65;14.95;;;7.30;92.60;;;;;;5011007;28;20037;-72
2021/10/10 06:01:47;;;;;;;27.02;15.55;;;7.20;92.70;;;;;;5010165;28;20069;-72
2021/10/10 06:04:13;;;;;;;26.38;16.23;;;7.30;92.90;;;;;;5010648;28;20022;-72
2021/10/10 06:06:38;;;;;;;33.38;17.70;;;7.30;92.90;;;;;;5012665;28;20565;-73
2021/10/10 06:09:06;;;;;;;27.95;16.83;;;7.30;93.00;;;;;;4999480;28;20026;-72
2021/10/10 06:11:33;;;;;;;25.77;15.75;;;7.30;92.90;;;;;;5007085;28;20100;-72
2021/10/10 06:13:59;;;;;;;26.98;16.55;;;7.30;92.90;;;;;;5009372;28;20022;-73
2021/10/10 06:16:26;;;;;;;23.25;14.95;;;7.30;93.00;;;;;;5007061;28;20065;-73
2021/10/10 06:18:51;;;;;;;29.20;16.95;;;7.30;93.10;;;;;;5003398;28;20080;-71
2021/10/10 06:21:17;;;;;;;25.02;14.88;;;7.30;93.00;;;;;;4994878;28;20030;-73
2021/10/10 06:23:42;;;;;;;26.23;15.88;;;7.30;93.10;;;;;;5001846;28;20467;-72
2021/10/10 06:26:08;;;;;;;25.30;15.13;;;7.30;93.10;;;;;;5014315;28;20037;-73
2021/10/10 06:28:33;;;;;;;30.95;16.63;;;7.40;93.10;;;;;;5010057;28;20060;-73
2021/10/10 06:30:59;;;;;;;25.40;14.73;;;7.40;93.20;;;;;;5003360;28;20069;-73
2021/10/10 06:33:24;;;;;;;27.95;15.73;;;7.40;93.10;;;;;;5012856;28;20057;-72
2021/10/10 06:35:51;;;;;;;24.10;15.02;;;7.50;93.30;;;;;;5011707;28;20482;-72
2021/10/10 06:38:16;;;;;;;26.23;16.73;;;7.40;92.90;;;;;;5012349;28;20030;-72
2021/10/10 06:40:42;;;;;;;23.25;15.45;;;7.40;92.90;;;;;;5013137;28;20030;-73
2021/10/10 06:43:07;;;;;;;29.42;16.45;;;7.40;93.10;;;;;;5011702;28;20021;-72
2021/10/10 06:45:33;;;;;;;29.45;15.95;;;7.40;93.00;;;;;;5012168;28;20086;-73
2021/10/10 06:47:58;;;;;;;24.20;15.27;;;7.40;93.00;;;;;;5010200;28;20052;-73
2021/10/10 06:50:24;;;;;;;28.00;16.80;;;7.40;92.90;;;;;;5009072;28;20041;-73
2021/10/10 06:52:49;;;;;;;30.15;17.13;;;7.50;92.90;;;;;;4999082;28;20037;-73
2021/10/10 06:55:15;;;;;;;23.13;15.52;;;7.50;93.30;;;;;;5011788;28;20128;-74
2021/10/10 06:57:42;;;;;;;31.55;17.00;;;7.50;93.00;;;;;;5006089;28;20049;-72
2021/10/10 07:00:08;;;;;;;25.65;15.68;;;7.50;93.00;;;;;;5005422;28;20030;-74
2021/10/10 07:02:33;;;;;;;23.65;15.50;;;7.50;93.00;;;;;;5004652;28;20030;-74
2021/10/10 07:05:02;;;;;;;28.80;17.95;;;7.50;93.10;;;;;;5008964;28;20163;-74
2021/10/10 07:07:27;;;;;;;26.63;16.80;;;7.50;93.20;;;;;;5008765;28;20447;-74
2021/10/10 07:09:53;;;;;;;25.95;15.27;;;7.60;93.10;;;;;;4990677;28;20372;-74
2021/10/10 07:12:18;;;;;;;27.95;17.27;;;7.60;93.00;;;;;;5000969;28;20025;-74
2021/10/10 07:14:46;;;;;;;28.48;16.58;;;7.60;92.90;;;;;;5005209;28;20391;-74
2021/10/10 07:17:12;;;;;;;29.42;16.35;;;7.60;92.90;;;;;;4998228;28;20410;-74
2021/10/10 07:19:45;;;;;;;26.85;15.45;;;7.60;92.90;;;;;;5005761;28;20034;-74
2021/10/10 07:22:58;;;;;;;28.90;16.17;;;7.60;92.90;;;;;;5009622;28;20051;-72
2021/10/10 07:25:05;;;;;;;25.77;16.13;;;7.70;92.90;;;;;;4996415;28;20095;-73
2021/10/10 07:27:33;;;;;;;33.90;16.98;;;7.70;93.00;;;;;;5006341;28;20061;-76
2021/10/10 07:29:58;;;;;;;32.13;16.38;;;7.70;93.00;;;;;;4996034;28;20483;-75
2021/10/10 07:32:24;;;;;;;26.05;17.15;;;7.80;93.10;;;;;;5001060;28;20165;-70
2021/10/10 07:34:49;;;;;;;26.73;16.77;;;7.80;93.00;;;;;;5002745;28;20395;-74
2021/10/10 07:37:15;;;;;;;27.02;16.30;;;7.90;92.90;;;;;;4999108;28;20068;-72
2021/10/10 07:39:40;;;;;;;26.80;16.75;;;7.90;92.90;;;;;;4999146;28;20025;-74
2021/10/10 07:42:06;;;;;;;28.00;16.38;;;8.00;92.80;;;;;;5008905;28;20390;-73
2021/10/10 07:44:31;;;;;;;26.92;15.63;;;8.00;92.80;;;;;;5005306;28;20034;-67
2021/10/10 07:49:45;;;;;;;26.98;16.63;;;8.20;93.00;;;;;;4998235;28;20038;-63
2021/10/10 07:52:11;;;;;;;27.45;16.75;;;8.20;93.00;;;;;;5004008;28;20030;-63
2021/10/10 07:54:37;;;;;;;27.77;17.38;;;8.30;92.80;;;;;;5008407;28;20050;-68
2021/10/10 07:57:03;;;;;;;29.85;17.75;;;8.30;92.80;;;;;;5003763;28;20053;-68
2021/10/10 07:59:29;;;;;;;32.53;16.58;;;8.30;92.70;;;;;;5009491;28;20083;-72
2021/10/10 08:01:54;;;;;;;31.65;18.15;;;8.30;92.60;;;;;;5001084;28;20104;-71
2021/10/10 08:04:20;;;;;;;26.55;15.98;;;8.40;92.60;;;;;;4998704;28;20030;-69
2021/10/10 08:06:49;;;;;;;26.33;16.05;;;8.40;92.60;;;;;;5007720;28;20066;-71
2021/10/10 08:09:15;;;;;;;24.80;16.40;;;8.40;92.60;;;;;;4996855;28;20136;-69
2021/10/10 08:11:42;;;;;;;25.48;15.15;;;8.50;92.70;;;;;;5008886;28;20034;-66
2021/10/10 08:14:08;;;;;;;26.10;15.40;;;8.50;92.60;;;;;;5000088;28;20029;-67
2021/10/10 08:16:33;;;;;;;24.40;16.25;;;8.60;92.60;;;;;;5011747;28;20434;-69
2021/10/10 08:18:59;;;;;;;23.95;15.35;;;8.70;92.60;;;;;;5009387;28;20109;-68
2021/10/10 08:21:24;;;;;;;23.40;14.95;;;8.80;92.50;;;;;;5010305;28;20025;-69
2021/10/10 08:23:50;;;;;;;24.85;15.45;;;8.80;92.40;;;;;;5002527;28;20030;-68
2021/10/10 08:26:15;;;;;;;24.30;15.40;;;8.90;92.40;;;;;;5002757;28;20098;-65
2021/10/10 08:28:41;;;;;;;25.40;15.80;;;8.90;92.30;;;;;;5002998;28;20117;-68
2021/10/10 08:31:06;;;;;;;29.55;16.52;;;9.00;92.30;;;;;;4997159;28;20427;-69
2021/10/10 08:33:32;;;;;;;23.75;15.05;;;9.00;92.20;;;;;;5008109;28;20037;-68
2021/10/10 08:35:57;;;;;;;24.30;14.77;;;9.10;92.20;;;;;;4997801;28;20038;-68
2021/10/10 08:38:23;;;;;;;23.52;14.50;;;9.10;92.40;;;;;;5002192;28;20018;-68
2021/10/10 08:40:52;;;;;;;23.40;14.75;;;9.20;92.20;;;;;;5009791;28;20028;-68
2021/10/10 08:43:21;;;;;;;23.58;14.10;;;9.30;92.00;;;;;;5004955;28;20194;-68
2021/10/10 08:45:47;;;;;;;20.75;13.95;;;9.30;91.80;;;;;;5009724;28;20030;-68
2021/10/10 08:48:16;;;;;;;24.33;15.90;;;9.40;91.90;;;;;;5007238;28;20037;-68
2021/10/10 08:50:42;;;;;;;24.65;15.10;;;9.50;91.70;;;;;;5002005;28;20042;-68
2021/10/10 08:53:08;;;;;;;25.75;13.88;;;9.50;91.60;;;;;;5004362;28;20033;-68
2021/10/10 08:55:34;;;;;;;22.80;13.80;;;9.60;91.60;;;;;;4999600;28;20080;-68
2021/10/10 08:58:00;;;;;;;22.38;12.95;;;9.70;91.40;;;;;;5004853;28;20460;-69
2021/10/10 09:00:33;;;;;;;22.70;13.10;;;9.80;91.40;;;;;;5006643;28;20030;-69
2021/10/10 09:03:00;;;;;;;19.30;12.27;;;9.90;91.30;;;;;;4998369;28;20030;-69
2021/10/10 09:05:26;;;;;;;18.60;12.25;;;10.00;90.90;;;;;;4997909;28;20034;-68
2021/10/10 09:07:54;;;;;;;19.55;13.20;;;10.00;90.70;;;;;;4999039;28;20038;-68
2021/10/10 09:10:22;;;;;;;22.52;12.50;;;10.10;90.40;;;;;;5001065;28;20065;-68
2021/10/10 09:12:48;;;;;;;22.08;12.55;;;10.20;90.00;;;;;;5004721;28;20031;-68
2021/10/10 09:15:20;;;;;;;22.50;11.50;;;10.30;89.50;;;;;;5001864;28;20057;-68
2021/10/10 09:17:53;;;;;;;18.30;11.13;;;10.30;89.20;;;;;;5006378;28;20371;-68
2021/10/10 09:20:28;;;;;;;18.55;11.27;;;10.40;89.30;;;;;;5007992;28;20045;-69
2021/10/10 09:22:53;;;;;;;18.92;10.95;;;10.50;89.30;;;;;;5002604;28;20077;-68
2021/10/10 09:25:19;;;;;;;21.15;10.73;;;10.50;89.10;;;;;;5009439;28;20588;-68
2021/10/10 09:27:44;;;;;;;16.35;10.80;;;10.60;88.40;;;;;;5007155;28;20038;-67
2021/10/10 09:30:11;;;;;;;16.00;9.90;;;10.70;87.70;;;;;;5013009;28;20064;-66
2021/10/10 09:32:43;;;;;;;18.60;10.52;;;10.80;88.00;;;;;;5001779;28;20041;-65
2021/10/10 09:35:26;;;;;;;17.23;10.57;;;10.90;87.50;;;;;;5006175;28;20036;-66
2021/10/10 09:38:09;;;;;;;18.80;11.10;;;11.00;87.30;;;;;;5003568;28;20054;-65
2021/10/10 09:40:41;;;;;;;15.77;10.13;;;11.10;88.10;;;;;;5013180;28;20078;-67
2021/10/10 09:43:06;;;;;;;17.23;9.63;;;11.20;86.80;;;;;;5007769;28;20029;-66
2021/10/10 09:45:52;;;;;;;13.98;8.70;;;11.30;86.60;;;;;;5003732;28;20039;-66
2021/10/10 09:48:31;;;;;;;14.95;9.15;;;11.40;86.50;;;;;;5007751;28;20041;-66
2021/10/10 09:50:56;;;;;;;12.68;8.35;;;11.40;85.10;;;;;;5011654;28;20397;-66
2021/10/10 09:53:33;;;;;;;15.57;10.07;;;11.50;84.50;;;;;;5005258;28;20018;-66
2021/10/10 09:56:06;;;;;;;14.50;9.43;;;11.60;84.20;;;;;;5011306;28;20042;-67
2021/10/10 09:58:36;;;;;;;13.05;8.68;;;11.70;83.90;;;;;;5006263;28;20108;-67
2021/10/10 10:01:20;;;;;;;13.77;8.50;;;11.80;84.00;;;;;;5006626;28;20077;-66
2021/10/10 10:04:06;;;;;;;14.27;9.00;;;11.90;83.50;;;;;;5006911;28;20036;-66
2021/10/10 10:06:38;;;;;;;15.07;8.35;;;12.00;83.80;;;;;;5012655;28;20054;-67
2021/10/10 10:09:12;;;;;;;13.73;8.23;;;12.00;82.50;;;;;;5010325;28;20036;-67
2021/10/10 10:11:39;;;;;;;14.40;8.03;;;12.10;81.30;;;;;;5017276;28;20134;-66
2021/10/10 10:14:14;;;;;;;11.80;7.20;;;12.10;81.10;;;;;;5005181;28;20037;-65
2021/10/10 10:16:45;;;;;;;12.30;7.55;;;12.20;79.70;;;;;;5002853;28;20030;-66
2021/10/10 10:19:16;;;;;;;12.30;7.43;;;12.20;78.60;;;;;;5009320;28;20121;-65
2021/10/10 10:21:43;;;;;;;14.15;7.68;;;12.30;78.60;;;;;;5007432;28;20033;-67
2021/10/10 10:24:11;;;;;;;14.10;8.13;;;12.30;78.20;;;;;;5004834;28;20375;-66
2021/10/10 10:26:37;;;;;;;13.68;7.75;;;12.40;80.10;;;;;;5004218;28;20103;-68
2021/10/10 10:29:06;;;;;;;12.25;7.68;;;12.50;79.00;;;;;;5004917;28;20043;-65
2021/10/10 10:31:33;;;;;;;17.65;7.95;;;12.60;77.20;;;;;;5005570;28;20038;-65
2021/10/10 10:34:27;;;;;;;15.27;8.18;;;12.60;76.70;;;;;;5004064;28;20026;-66
2021/10/10 10:37:00;;;;;;;13.50;7.68;;;12.70;75.40;;;;;;5010527;28;20041;-65
2021/10/10 10:39:41;;;;;;;11.85;7.90;;;12.70;75.50;;;;;;4997861;28;20048;-65
2021/10/10 10:42:09;;;;;;;10.85;7.22;;;12.80;75.40;;;;;;5014678;28;20022;-66
2021/10/10 10:44:42;;;;;;;11.27;7.68;;;12.90;75.10;;;;;;5004559;28;20033;-66
2021/10/10 10:47:22;;;;;;;13.43;7.70;;;13.00;74.30;;;;;;5000451;28;20027;-64
2021/10/10 10:49:54;;;;;;;13.25;6.82;;;13.10;74.10;;;;;;5010323;28;20084;-67
2021/10/10 10:52:26;;;;;;;12.30;7.20;;;13.10;73.20;;;;;;5006051;28;20042;-67
2021/10/10 10:54:56;;;;;;;10.65;6.40;;;13.10;73.20;;;;;;5001759;28;20049;-66
2021/10/10 10:57:29;;;;;;;10.30;6.38;;;13.20;71.50;;;;;;5002397;28;20091;-66
2021/10/10 11:00:05;;;;;;;9.82;6.75;;;13.20;70.60;;;;;;5010015;28;20030;-66
2021/10/10 11:02:58;;;;;;;13.82;6.22;;;13.30;70.90;;;;;;5006151;28;20027;-66
2021/10/10 11:05:55;;;;;;;10.88;7.20;;;13.30;71.10;;;;;;5001693;28;20034;-66
2021/10/10 11:08:27;;;;;;;12.77;6.82;;;13.40;72.00;;;;;;4996687;28;20034;-66
2021/10/10 11:11:13;;;;;;;10.73;6.65;;;13.40;70.90;;;;;;5001684;28;20055;-66
2021/10/10 11:14:18;;;;;;;11.82;7.03;;;13.50;71.10;;;;;;5010409;28;20037;-66
2021/10/10 11:16:43;;;;;;;13.10;6.93;;;13.60;70.30;;;;;;5001916;28;20042;-67
2021/10/10 11:19:13;;;;;;;10.32;6.15;;;13.70;70.90;;;;;;5007378;28;20044;-67
2021/10/10 11:21:41;;;;;;;12.70;6.70;;;13.70;71.10;;;;;;4996676;28;20028;-67
2021/10/10 11:24:12;;;;;;;11.57;6.43;;;13.80;70.30;;;;;;5007188;28;20089;-66
2021/10/10 11:26:39;;;;;;;13.57;6.72;;;13.80;70.50;;;;;;5012489;28;20030;-66
2021/10/10 11:29:13;;;;;;;12.27;6.07;;;13.90;70.90;;;;;;5004317;28;20045;-66
2021/10/10 11:31:40;;;;;;;10.35;5.88;;;14.00;69.80;;;;;;5010038;28;20046;-66
2021/10/10 11:34:11;;;;;;;9.60;5.32;;;14.00;68.50;;;;;;5005302;28;20026;-65
2021/10/10 11:36:45;;;;;;;9.90;5.72;;;14.00;66.20;;;;;;5010231;28;20482;-65
2021/10/10 11:39:16;;;;;;;11.68;5.63;;;14.10;65.30;;;;;;5000845;28;20038;-66
2021/10/10 11:41:48;;;;;;;9.52;5.80;;;14.10;63.10;;;;;;5002814;28;20077;-66
2021/10/10 11:44:15;;;;;;;9.52;5.50;;;14.10;63.30;;;;;;5004685;28;20022;-66
2021/10/10 11:46:52;;;;;;;9.07;5.55;;;14.10;64.40;;;;;;5010000;28;20117;-66
2021/10/10 11:49:34;;;;;;;9.52;5.20;;;14.20;63.40;;;;;;5002410;28;20331;-66
2021/10/10 11:52:05;;;;;;;9.93;5.30;;;14.20;63.20;;;;;;5000120;28;20038;-64
2021/10/10 11:54:39;;;;;;;10.07;5.47;;;14.20;62.80;;;;;;5004380;28;20050;-65
2021/10/10 11:57:07;;;;;;;7.70;5.47;;;14.30;62.60;;;;;;5004333;28;20041;-65
2021/10/10 11:59:33;;;;;;;8.95;5.97;;;14.30;63.70;;;;;;5004799;28;20045;-67
2021/10/10 12:01:59;;;;;;;9.35;5.55;;;14.40;63.90;;;;;;5007734;28;20026;-68
2021/10/10 12:04:25;;;;;;;8.85;5.32;;;14.40;62.70;;;;;;5000797;28;20056;-68
2021/10/10 12:06:51;;;;;;;10.35;6.30;;;14.40;62.50;;;;;;5007525;28;20037;-68
2021/10/10 12:09:17;;;;;;;9.13;5.80;;;14.50;63.00;;;;;;5007071;28;20017;-68
2021/10/10 12:12:04;;;;;;;7.93;4.95;;;14.50;62.10;;;;;;5008745;28;20036;-68
2021/10/10 12:14:43;;;;;;;10.60;5.20;;;14.50;61.70;;;;;;4997175;28;20095;-67
2021/10/10 12:17:09;;;;;;;10.88;5.40;;;14.60;61.50;;;;;;5008577;28;20060;-68
2021/10/10 12:19:43;;;;;;;8.88;5.60;;;14.60;61.40;;;;;;5007496;28;20033;-67
2021/10/10 12:22:08;;;;;;;10.90;5.38;;;14.60;60.70;;;;;;5000104;28;21546;-67
2021/10/10 12:24:45;;;;;;;11.02;5.40;;;14.60;61.10;;;;;;5007649;28;20033;-67
2021/10/10 12:27:11;;;;;;;8.32;5.40;;;14.70;60.70;;;;;;5007012;28;20026;-65
2021/10/10 12:29:43;;;;;;;8.77;5.53;;;14.70;61.20;;;;;;5009491;28;20466;-68
2021/10/10 12:32:21;;;;;;;9.75;5.70;;;14.80;61.10;;;;;;4991379;28;20088;-66
2021/10/10 12:34:47;;;;;;;9.75;5.90;;;14.80;61.50;;;;;;5000420;28;20042;-67
2021/10/10 12:37:21;;;;;;;8.50;5.50;;;14.80;60.80;;;;;;4999787;28;20088;-67
2021/10/10 12:39:47;;;;;;;17.50;7.72;;;14.80;59.90;;;;;;5006783;28;20033;-66
2021/10/10 12:42:14;;;;;;;8.38;5.80;;;14.90;61.80;;;;;;5002684;28;20030;-68
2021/10/10 12:45:01;;;;;;;10.40;5.97;;;15.00;60.80;;;;;;5002548;28;20033;-67
2021/10/10 12:47:30;;;;;;;9.32;5.50;;;15.00;60.40;;;;;;5001358;28;20034;-67